createdAt,value
2019-05-02T00:01:24.144Z,1.10
2019-05-02T00:04:12.433Z,1.20
2019-05-02T00:07:14.338Z,1.23
2019-05-02T00:10:00.986Z,1.23
2019-05-02T00:13:02.111Z,1.17
2019-05-02T00:15:51.380Z,1.20
2019-05-02T00:18:45.392Z,1.10
2019-05-02T00:21:33.010Z,1.03
2019-05-02T00:24:28.402Z,1.13
2019-05-02T00:27:15.629Z,1.03
2019-05-02T00:30:10.488Z,1.20
2019-05-02T00:32:58.264Z,1.10
2019-05-02T00:35:53.031Z,1.30
2019-05-02T00:38:40.503Z,1.20
2019-05-02T00:41:38.306Z,1.27
2019-05-02T00:44:23.921Z,1.20
2019-05-02T00:47:20.161Z,1.40
2019-05-02T00:50:11.194Z,1.00
2019-05-02T00:53:07.045Z,1.13
2019-05-02T00:55:52.013Z,1.00
2019-05-02T00:58:53.228Z,1.27
2019-05-02T01:02:00.017Z,1.20
2019-05-02T01:04:59.267Z,1.43
2019-05-02T01:07:44.620Z,1.10
2019-05-02T01:10:38.737Z,1.13
2019-05-02T01:13:25.671Z,1.20
2019-05-02T01:16:27.073Z,1.20
2019-05-02T01:19:16.145Z,1.10
2019-05-02T01:22:10.446Z,1.10
2019-05-02T01:25:01.678Z,1.27
2019-05-02T01:28:17.631Z,1.27
2019-05-02T01:31:13.153Z,1.40
2019-05-02T01:37:21.146Z,1.10
2019-05-02T01:43:24.213Z,1.30
2019-05-02T01:46:21.724Z,1.33
2019-05-02T01:49:05.549Z,1.40
2019-05-02T01:51:59.995Z,1.20
2019-05-02T01:54:47.614Z,1.40
2019-05-02T01:57:44.701Z,1.13
2019-05-02T02:00:30.290Z,1.40
2019-05-02T02:03:24.409Z,1.20
2019-05-02T02:06:11.723Z,1.03
2019-05-02T02:09:08.348Z,1.23
2019-05-02T02:12:04.902Z,1.00
2019-05-02T02:14:57.028Z,1.20
2019-05-02T02:17:52.651Z,1.30
2019-05-02T02:21:04.163Z,1.30
2019-05-02T02:24:08.473Z,1.30
2019-05-02T02:27:03.147Z,1.27
2019-05-02T02:29:50.658Z,1.30
2019-05-02T02:32:45.121Z,1.23
2019-05-02T02:35:32.634Z,1.10
2019-05-02T02:38:26.781Z,1.33
2019-05-02T02:41:15.213Z,1.37
2019-05-02T02:44:12.299Z,1.20
2019-05-02T02:47:01.802Z,1.27
2019-05-02T02:50:02.450Z,1.63
2019-05-02T02:52:47.124Z,1.23
2019-05-02T02:55:41.246Z,1.40
2019-05-02T02:58:29.190Z,1.00
2019-05-02T03:01:28.891Z,1.30
2019-05-02T03:04:12.550Z,1.30
2019-05-02T03:07:06.386Z,1.20
2019-05-02T03:09:53.498Z,1.30
2019-05-02T03:13:06.009Z,1.27
2019-05-02T03:16:00.350Z,1.30
2019-05-02T03:19:03.289Z,1.10
2019-05-02T03:21:54.420Z,1.20
2019-05-02T03:24:49.184Z,1.20
2019-05-02T03:27:39.682Z,1.30
2019-05-02T03:30:37.270Z,1.20
2019-05-02T03:33:23.329Z,1.13
2019-05-02T03:36:28.889Z,1.20
2019-05-02T03:39:14.613Z,1.30
2019-05-02T03:42:03.327Z,1.20
2019-05-02T03:44:56.046Z,1.33
2019-05-02T03:47:48.159Z,1.40
2019-05-02T03:50:35.638Z,1.10
2019-05-02T03:56:19.429Z,1.10
2019-05-02T03:59:12.961Z,1.10
2019-05-02T04:02:00.227Z,1.27
2019-05-02T04:05:00.679Z,1.13
2019-05-02T04:07:43.411Z,1.27
2019-05-02T04:10:59.398Z,1.40
2019-05-02T04:13:50.237Z,1.40
2019-05-02T04:16:48.490Z,1.33
2019-05-02T04:19:34.842Z,1.30
2019-05-02T04:22:36.056Z,1.30
2019-05-02T04:25:27.912Z,1.00
2019-05-02T04:28:18.274Z,1.20
2019-05-02T04:31:05.507Z,1.33
2019-05-02T04:33:59.564Z,1.20
2019-05-02T04:36:47.509Z,1.20
2019-05-02T04:39:42.357Z,1.23
2019-05-02T04:42:29.831Z,1.20
2019-05-02T04:45:29.341Z,1.47
2019-05-02T04:48:12.460Z,1.10
2019-05-02T04:51:13.636Z,1.10
2019-05-02T04:53:58.557Z,1.20
2019-05-02T04:56:55.111Z,1.50
2019-05-02T04:59:39.998Z,1.40
2019-05-02T05:02:37.322Z,1.30
2019-05-02T05:05:25.566Z,1.40
2019-05-02T05:08:26.650Z,1.30
2019-05-02T05:11:07.954Z,1.70
2019-05-02T05:14:02.351Z,1.10
2019-05-02T05:16:51.701Z,1.40
2019-05-02T05:19:45.224Z,1.13
2019-05-02T05:22:37.657Z,1.20
2019-05-02T05:25:39.553Z,1.10
2019-05-02T05:28:27.249Z,1.03
2019-05-02T05:31:23.939Z,1.10
2019-05-02T05:34:10.203Z,1.17
2019-05-02T05:37:09.416Z,0.80
2019-05-02T05:39:58.003Z,1.00
2019-05-02T05:42:51.837Z,1.20
2019-05-02T05:45:53.506Z,0.97
2019-05-02T05:48:47.992Z,0.90
2019-05-02T05:51:43.370Z,1.00
2019-05-02T05:54:44.921Z,1.10
2019-05-02T05:57:38.636Z,1.20
2019-05-02T06:00:40.208Z,1.40
2019-05-02T06:03:41.959Z,0.83
2019-05-02T06:06:39.241Z,1.13
2019-05-02T06:09:33.836Z,1.07
2019-05-02T06:12:35.634Z,1.10
2019-05-02T06:15:23.309Z,1.23
2019-05-02T06:18:17.534Z,1.00
2019-05-02T06:21:08.665Z,1.23
2019-05-02T06:24:00.577Z,1.20
2019-05-02T06:26:55.229Z,1.03
2019-05-02T06:29:51.322Z,1.23
2019-05-02T06:32:38.412Z,1.20
2019-05-02T06:35:32.371Z,1.30
2019-05-02T06:38:21.599Z,1.17
2019-05-02T06:41:16.109Z,1.13
2019-05-02T06:44:04.598Z,1.20
2019-05-02T06:46:59.178Z,1.23
2019-05-02T06:49:47.380Z,1.20
2019-05-02T06:52:41.634Z,1.00
2019-05-02T06:55:36.342Z,0.90
2019-05-02T06:58:32.452Z,1.20
2019-05-02T07:01:21.146Z,1.13
2019-05-02T07:04:17.403Z,1.03
2019-05-02T07:07:04.493Z,1.27
2019-05-02T07:10:07.326Z,1.30
2019-05-02T07:13:09.792Z,1.20
2019-05-02T07:16:10.568Z,1.07
2019-05-02T07:19:16.672Z,1.20
2019-05-02T07:22:10.849Z,1.20
2019-05-02T07:25:01.926Z,1.30
2019-05-02T07:28:09.489Z,1.20
2019-05-02T07:30:56.583Z,0.87
2019-05-02T07:33:53.209Z,1.30
2019-05-02T07:36:40.621Z,1.20
2019-05-02T07:39:36.072Z,1.57
2019-05-02T07:42:24.015Z,1.30
2019-05-02T07:45:20.009Z,1.27
2019-05-02T07:48:07.121Z,1.10
2019-05-02T07:51:01.131Z,1.10
2019-05-02T07:53:50.275Z,1.47
2019-05-02T07:56:43.915Z,1.40
2019-05-02T07:59:31.163Z,1.30
2019-05-02T08:02:26.427Z,1.50
2019-05-02T08:05:15.612Z,1.60
2019-05-02T08:08:15.822Z,1.60
2019-05-02T08:11:03.282Z,1.53
2019-05-02T08:14:00.541Z,1.60
2019-05-02T08:16:46.715Z,1.33
2019-05-02T08:19:43.188Z,1.40
2019-05-02T08:22:32.028Z,1.47
2019-05-02T08:25:27.452Z,1.33
2019-05-02T08:28:23.356Z,1.70
2019-05-02T08:31:30.135Z,1.60
2019-05-02T08:34:32.629Z,1.50
2019-05-02T08:37:35.388Z,2.07
2019-05-02T08:40:35.425Z,1.83
2019-05-02T08:43:40.109Z,1.97
2019-05-02T08:46:31.893Z,1.57
2019-05-02T08:49:34.437Z,2.10
2019-05-02T08:52:28.855Z,1.60
2019-05-02T08:55:34.286Z,1.80
2019-05-02T08:58:34.841Z,1.40
2019-05-02T09:01:39.278Z,1.50
2019-05-02T09:04:33.412Z,1.60
2019-05-02T09:07:31.707Z,1.80
2019-05-02T09:10:23.849Z,1.57
2019-05-02T09:13:29.122Z,1.83
2019-05-02T09:16:21.595Z,1.70
2019-05-02T09:19:26.404Z,1.60
2019-05-02T09:22:19.526Z,1.60
2019-05-02T09:25:22.110Z,2.13
2019-05-02T09:28:17.134Z,1.40
2019-05-02T09:31:22.993Z,1.63
2019-05-02T09:34:31.872Z,1.47
2019-05-02T09:37:33.108Z,1.50
2019-05-02T09:40:29.411Z,1.70
2019-05-02T09:43:34.880Z,1.50
2019-05-02T09:46:25.971Z,1.53
2019-05-02T09:49:28.148Z,1.30
2019-05-02T09:52:22.491Z,1.30
2019-05-02T09:55:25.302Z,1.27
2019-05-02T09:58:21.241Z,1.40
2019-05-02T10:01:18.922Z,1.33
2019-05-02T10:04:13.928Z,1.63
2019-05-02T10:07:15.470Z,1.37
2019-05-02T10:10:18.393Z,1.23
2019-05-02T10:13:12.551Z,1.40
2019-05-02T10:16:09.521Z,1.23
2019-05-02T10:19:13.425Z,1.10
2019-05-02T10:22:06.047Z,1.27
2019-05-02T10:25:06.743Z,1.30
2019-05-02T10:28:02.172Z,1.20
2019-05-02T10:31:03.071Z,1.13
2019-05-02T10:33:56.523Z,1.33
2019-05-02T10:37:00.221Z,1.40
2019-05-02T10:39:58.193Z,1.30
2019-05-02T10:42:59.203Z,1.40
2019-05-02T10:45:58.285Z,1.20
2019-05-02T10:49:02.007Z,1.50
2019-05-02T10:51:56.603Z,1.63
2019-05-02T10:54:57.557Z,1.60
2019-05-02T10:57:52.690Z,1.50
2019-05-02T11:00:54.132Z,1.40
2019-05-02T11:03:47.463Z,1.30
2019-05-02T11:06:46.264Z,1.53
2019-05-02T11:09:42.016Z,1.20
2019-05-02T11:12:47.025Z,1.23
2019-05-02T11:15:58.181Z,1.30
2019-05-02T11:19:03.662Z,1.47
2019-05-02T11:21:59.128Z,1.27
2019-05-02T11:24:53.047Z,1.57
2019-05-02T11:27:48.671Z,1.30
2019-05-02T11:30:56.925Z,1.30
2019-05-02T11:33:55.490Z,1.30
2019-05-02T11:36:52.501Z,1.40
2019-05-02T11:39:52.119Z,1.47
2019-05-02T11:42:49.659Z,1.40
2019-05-02T11:45:43.740Z,1.50
2019-05-02T11:48:55.625Z,1.57
2019-05-02T11:51:42.313Z,1.57
2019-05-02T11:54:44.715Z,1.13
2019-05-02T11:57:38.771Z,1.13
2019-05-02T12:00:39.672Z,1.20
2019-05-02T12:03:52.253Z,1.50
2019-05-02T12:07:00.927Z,1.50
2019-05-02T12:09:56.506Z,1.30
2019-05-02T12:12:54.416Z,1.20
2019-05-02T12:15:48.557Z,1.10
2019-05-02T12:18:50.143Z,1.40
2019-05-02T12:21:44.833Z,1.20
2019-05-02T12:24:46.144Z,1.20
2019-05-02T12:27:42.923Z,1.20
2019-05-02T12:30:44.804Z,1.10
2019-05-02T12:33:42.524Z,1.10
2019-05-02T12:36:43.411Z,1.17
2019-05-02T12:39:38.258Z,0.93
2019-05-02T12:42:39.224Z,1.17
2019-05-02T12:45:33.816Z,1.20
2019-05-02T12:48:35.604Z,1.17
2019-05-02T12:51:29.121Z,1.30
2019-05-02T12:54:32.428Z,1.30
2019-05-02T12:57:27.150Z,1.30
2019-05-02T13:00:28.400Z,1.47
2019-05-02T13:03:43.629Z,1.20
2019-05-02T13:06:44.598Z,1.50
2019-05-02T13:09:38.052Z,1.33
2019-05-02T13:12:41.910Z,1.10
2019-05-02T13:15:36.014Z,1.20
2019-05-02T13:18:37.921Z,1.10
2019-05-02T13:21:39.305Z,1.57
2019-05-02T13:24:32.465Z,1.27
2019-05-02T13:27:31.630Z,1.40
2019-05-02T13:30:46.607Z,1.60
2019-05-02T13:33:44.310Z,1.37
2019-05-02T13:36:57.863Z,1.30
2019-05-02T13:39:53.380Z,1.47
2019-05-02T13:43:01.836Z,1.60
2019-05-02T13:46:15.506Z,1.27
2019-05-02T13:49:16.018Z,1.33
2019-05-02T13:52:11.813Z,1.50
2019-05-02T13:55:13.730Z,1.47
2019-05-02T13:58:07.994Z,1.40
2019-05-02T14:04:10.095Z,1.63
2019-05-02T14:07:02.901Z,1.20
2019-05-02T14:09:59.867Z,1.30
2019-05-02T14:13:03.051Z,1.27
2019-05-02T14:15:56.385Z,1.23
2019-05-02T14:18:57.195Z,1.40
2019-05-02T14:21:51.808Z,1.30
2019-05-02T14:24:52.814Z,1.40
2019-05-02T14:27:51.468Z,1.23
2019-05-02T14:30:52.374Z,1.40
2019-05-02T14:33:47.485Z,1.47
2019-05-02T14:36:48.557Z,1.13
2019-05-02T14:39:42.698Z,1.20
2019-05-02T14:42:43.530Z,1.50
2019-05-02T14:45:37.827Z,1.07
2019-05-02T14:48:43.605Z,1.10
2019-05-02T14:51:36.641Z,1.13
2019-05-02T14:54:38.152Z,1.40
2019-05-02T14:57:42.671Z,1.30
2019-05-02T15:00:39.485Z,1.10
2019-05-02T15:03:32.976Z,1.10
2019-05-02T15:06:33.829Z,1.37
2019-05-02T15:09:27.555Z,1.37
2019-05-02T15:12:28.400Z,1.33
2019-05-02T15:15:23.214Z,1.00
2019-05-02T15:18:24.405Z,0.87
2019-05-02T15:21:16.337Z,1.00
2019-05-02T15:24:15.652Z,1.10
2019-05-02T15:27:13.334Z,1.10
2019-05-02T15:30:12.430Z,1.00
2019-05-02T15:33:08.361Z,0.90
2019-05-02T15:36:11.923Z,1.17
2019-05-02T15:42:17.830Z,0.87
2019-05-02T15:45:09.962Z,0.90
2019-05-02T15:48:14.604Z,0.87
2019-05-02T15:51:09.117Z,0.70
2019-05-02T15:54:18.796Z,0.93
2019-05-02T15:57:09.643Z,0.80
2019-05-02T16:00:15.460Z,0.63
2019-05-02T16:03:08.056Z,0.80
2019-05-02T16:06:09.074Z,0.73
2019-05-02T16:09:04.886Z,0.80
2019-05-02T16:11:58.789Z,0.70
2019-05-02T16:14:45.791Z,0.53
2019-05-02T16:17:47.851Z,0.83
2019-05-02T16:20:47.357Z,0.73
2019-05-02T16:23:46.889Z,0.80
2019-05-02T16:26:44.914Z,0.50
2019-05-02T16:29:48.447Z,0.63
2019-05-02T16:32:46.931Z,0.70
2019-05-02T16:35:52.849Z,0.40
2019-05-02T16:38:42.999Z,0.40
2019-05-02T16:41:49.107Z,0.60
2019-05-02T16:44:43.051Z,0.37
2019-05-02T16:47:49.593Z,0.60
2019-05-02T16:50:44.746Z,0.50
2019-05-02T16:53:37.107Z,0.33
2019-05-02T16:56:31.617Z,0.40
2019-05-02T16:59:34.441Z,0.50
2019-05-02T17:02:32.463Z,0.83
2019-05-02T17:05:34.677Z,0.57
2019-05-02T17:08:32.897Z,0.50
2019-05-02T17:11:35.898Z,0.63
2019-05-02T17:14:22.142Z,0.60
2019-05-02T17:17:26.561Z,0.67
2019-05-02T17:20:16.665Z,0.80
2019-05-02T17:23:15.697Z,0.70
2019-05-02T17:26:09.429Z,0.80
2019-05-02T17:29:11.884Z,0.80
2019-05-02T17:32:05.566Z,1.00
2019-05-02T17:35:10.042Z,0.70
2019-05-02T17:38:02.695Z,0.90
2019-05-02T17:41:07.659Z,0.80
2019-05-02T17:43:59.402Z,0.90
2019-05-02T17:47:01.719Z,0.80
2019-05-02T17:50:17.801Z,1.00
2019-05-02T17:53:15.547Z,0.87
2019-05-02T17:56:13.013Z,0.97
2019-05-02T17:59:12.153Z,1.03
2019-05-02T18:02:11.548Z,0.87
2019-05-02T18:05:03.175Z,1.00
2019-05-02T18:07:57.216Z,1.20
2019-05-02T18:10:58.512Z,0.90
2019-05-02T18:13:48.026Z,0.90
2019-05-02T18:16:42.062Z,1.07
2019-05-02T18:19:36.646Z,1.10
2019-05-02T18:22:39.885Z,1.10
2019-05-02T18:25:32.613Z,1.10
2019-05-02T18:28:45.827Z,1.30
2019-05-02T18:31:39.616Z,1.20
2019-05-02T18:34:33.844Z,1.30
2019-05-02T18:37:27.200Z,1.30
2019-05-02T18:40:30.172Z,1.00
2019-05-02T18:43:24.298Z,1.23
2019-05-02T18:46:28.593Z,1.50
2019-05-02T18:49:23.465Z,1.13
2019-05-02T18:52:35.625Z,1.10
2019-05-02T18:55:23.225Z,1.30
2019-05-02T18:58:22.668Z,1.33
2019-05-02T19:01:18.472Z,1.63
2019-05-02T19:04:18.458Z,1.20
2019-05-02T19:07:15.867Z,1.27
2019-05-02T19:10:08.460Z,1.50
2019-05-02T19:13:06.149Z,1.20
2019-05-02T19:16:08.152Z,1.40
2019-05-02T19:19:02.249Z,1.23
2019-05-02T19:22:07.495Z,1.30
2019-05-02T19:25:01.866Z,1.40
2019-05-02T19:28:06.082Z,1.10
2019-05-02T19:31:02.995Z,0.90
2019-05-02T19:34:05.339Z,1.20
2019-05-02T19:37:02.888Z,1.20
2019-05-02T19:40:01.322Z,1.17
2019-05-02T19:42:57.309Z,1.13
2019-05-02T19:45:57.658Z,1.30
2019-05-02T19:48:51.267Z,1.00
2019-05-02T19:51:56.619Z,1.07
2019-05-02T19:54:47.657Z,1.20
2019-05-02T19:57:49.030Z,1.47
2019-05-02T20:00:36.564Z,1.10
2019-05-02T20:03:38.734Z,1.30
2019-05-02T20:06:32.649Z,1.27
2019-05-02T20:09:32.237Z,1.00
2019-05-02T20:12:26.355Z,1.27
2019-05-02T20:15:30.935Z,1.30
2019-05-02T20:18:43.943Z,1.07
2019-05-02T20:22:02.861Z,0.93
2019-05-02T20:24:59.840Z,1.30
2019-05-02T20:27:58.528Z,1.27
2019-05-02T20:30:52.627Z,1.00
2019-05-02T20:33:54.281Z,0.93
2019-05-02T20:36:48.533Z,1.30
2019-05-02T20:39:51.931Z,1.20
2019-05-02T20:42:45.264Z,1.13
2019-05-02T20:45:46.776Z,1.20
2019-05-02T20:48:41.918Z,1.07
2019-05-02T20:51:45.150Z,1.00
2019-05-02T20:54:42.797Z,1.23
2019-05-02T20:57:45.051Z,1.30
2019-05-02T21:01:02.373Z,1.10
2019-05-02T21:03:42.758Z,0.97
2019-05-02T21:06:52.821Z,1.00
2019-05-02T21:09:58.895Z,0.80
2019-05-02T21:13:06.293Z,0.80
2019-05-02T21:16:21.908Z,1.13
2019-05-02T21:19:15.759Z,0.93
2019-05-02T21:22:17.118Z,0.80
2019-05-02T21:25:25.102Z,0.87
2019-05-02T21:28:26.499Z,1.10
2019-05-02T21:31:22.372Z,0.80
2019-05-02T21:34:26.382Z,1.00
2019-05-02T21:37:22.597Z,0.73
2019-05-02T21:40:25.791Z,0.80
2019-05-02T21:43:19.334Z,0.80
2019-05-02T21:46:13.781Z,0.77
2019-05-02T21:49:09.566Z,0.77
2019-05-02T21:52:22.703Z,0.40
2019-05-02T21:55:27.231Z,0.70
2019-05-02T21:58:28.581Z,0.50
2019-05-02T22:01:22.443Z,0.60
2019-05-02T22:04:23.524Z,0.70
2019-05-02T22:07:17.271Z,0.60
2019-05-02T22:10:19.285Z,0.70
2019-05-02T22:13:13.443Z,0.30
2019-05-02T22:16:14.087Z,0.87
2019-05-02T22:19:22.174Z,0.40
2019-05-02T22:22:22.943Z,0.50
2019-05-02T22:25:17.273Z,0.70
2019-05-02T22:28:18.083Z,0.60
2019-05-02T22:31:12.511Z,0.40
2019-05-02T22:34:13.591Z,0.60
2019-05-02T22:37:09.459Z,0.43
2019-05-02T22:40:16.026Z,0.40
2019-05-02T22:43:09.930Z,0.70
2019-05-02T22:46:14.971Z,0.37
2019-05-02T22:49:09.418Z,0.40
2019-05-02T22:52:12.192Z,0.57
2019-05-02T22:55:07.320Z,0.50
2019-05-02T22:58:08.244Z,0.30
2019-05-02T23:01:02.561Z,0.50
2019-05-02T23:04:03.579Z,0.37
2019-05-02T23:06:57.915Z,0.50
2019-05-02T23:09:59.617Z,0.50
2019-05-02T23:12:53.851Z,0.40
2019-05-02T23:15:55.526Z,0.57
2019-05-02T23:18:51.940Z,0.40
2019-05-02T23:21:53.002Z,0.40
2019-05-02T23:25:05.226Z,0.33
2019-05-02T23:28:10.216Z,0.60
2019-05-02T23:31:03.481Z,0.70
2019-05-02T23:34:05.125Z,0.50
2019-05-02T23:36:59.392Z,0.40
2019-05-02T23:40:01.944Z,0.50
2019-05-02T23:42:59.112Z,0.50
2019-05-02T23:46:02.234Z,0.30
2019-05-02T23:48:56.456Z,0.30
2019-05-02T23:52:02.289Z,0.40
2019-05-02T23:54:56.940Z,0.50
2019-05-02T23:58:00.574Z,0.30
